モンテレー の空港の天気 - METARとTAF

ヘネラル・マリアノ・エソコベド国際空港 ( MMMY / MTY ) - メキシコ ヌエボ・レオン州モンテレー
飛行場実況気象(Metar)
観測時間07/22 12:40 CDT (07/22 17:40 UTC)
風向・風速東北東 4m/s
視程10km以上
天気現象
なし
気温33℃
湿度34%
気圧1015hPa
METARMMMY 221740Z 07007KT 7SM SKC 33/15 A2997 RMK SLP/// 5//// 9// HZY
過去の天気等 Google飛行場航空写真 Wunderground天気予報

過去48時間のMETAR

飛行場予報(TAF)
発表時間: 7/22 12:25 CDT (7/22 17:25 UTC)
予報対象時間: 22日13時 CDT ~ 23日19時 CDT
風向・風速南東 6m/s
視程10km以上
全天の4割程度の雲 雲底高度 910m
22日22時 CDT から
風向・風速東 3m/s
視程10km以上
なし
23日7時 CDT から
風向・風速東南東 3m/s
視程10km以上
天気現象煙霧
全天の4割程度の雲 雲底高度 610m
23日14時 CDT ~ 23日16時 CDT に徐々に
風向・風速南南東 6m/s
TAF MMMY 221725Z 2218/2324 13012KT P6SM SCT030 TX38/2222Z TN22/2312Z
FM230300 08005KT P6SM SKC
FM231200 12006KT 6SM HZ SCT020
BECMG 2319/2321 15012KT